Time;durP1;ratioP1;P1;durP2;ratioP2;P2;SDS_P1;SDS_P2;PMS_P1;PMS_P2;Temp;Humidity;BMP_temperature;BMP_pressure;BME280_temperature;BME280_humidity;BME280_pressure;Samples;Min_cycle;Max_cycle;Signal;HPM_P1;HPM_P2
2021/04/10 00:00:53;343925.00;1.15;593.42;79557.00;0.27;138.27;;;;;17.10;1.00;;;;;;2264537;61;2002;-87
2021/04/10 00:03:19;442035.00;1.47;762.08;114635.00;0.38;198.83;;;;;17.20;1.00;;;;;;2264530;61;1430;-87
2021/04/10 00:05:45;509577.00;1.70;878.31;124272.00;0.41;215.45;;;;;17.30;1.00;;;;;;2264535;61;1134;-87
2021/04/10 00:08:12;266220.00;0.89;459.84;79969.00;0.27;138.98;;;;;17.50;1.00;;;;;;2264503;61;1074;-86
2021/04/10 00:10:39;575023.00;1.92;991.11;209900.00;0.70;362.96;;;;;17.60;1.00;;;;;;2264445;61;1112;-86
2021/04/10 00:13:06;93740.00;0.31;162.77;0.00;0.00;0.62;;;;;17.50;1.00;;;;;;2264473;61;1469;-87
2021/04/10 00:15:33;326529.00;1.09;563.52;0.00;0.00;0.62;;;;;17.20;1.00;;;;;;2264508;61;1087;-87
2021/04/10 00:17:59;123403.00;0.41;213.95;0.00;0.00;0.62;;;;;16.90;1.00;;;;;;2264472;61;1170;-87
2021/04/10 00:20:26;429330.00;1.43;740.23;64047.00;0.21;111.47;;;;;17.00;1.00;;;;;;2264570;61;1052;-87
2021/04/10 00:22:53;187787.00;0.63;324.90;0.00;0.00;0.62;;;;;16.80;1.00;;;;;;2264282;61;1938;-87
2021/04/10 00:25:20;129407.00;0.43;224.31;0.00;0.00;0.62;;;;;16.80;1.00;;;;;;2264474;61;1129;-87
2021/04/10 00:27:48;160798.00;0.54;278.41;0.00;0.00;0.62;;;;;16.90;1.00;;;;;;2264436;61;1147;-87
2021/04/10 00:30:16;345308.00;1.15;595.80;41661.00;0.14;72.76;;;;;16.90;1.00;;;;;;2264447;61;1101;-87
2021/04/10 00:32:44;324874.00;1.08;560.68;82172.00;0.27;142.79;;;;;16.90;1.00;;;;;;2264422;61;1591;-86
2021/04/10 00:35:12;387858.00;1.29;668.93;70139.00;0.23;122.00;;;;;16.60;1.00;;;;;;2264448;61;1132;-87
2021/04/10 00:37:38;249991.00;0.83;431.94;80640.00;0.27;140.14;;;;;16.60;1.00;;;;;;2264496;61;1008;-87
2021/04/10 00:40:05;116653.00;0.39;202.31;0.00;0.00;0.62;;;;;16.50;1.00;;;;;;2264453;61;1088;-87
2021/04/10 00:42:32;296143.00;0.99;511.29;0.00;0.00;0.62;;;;;16.30;1.00;;;;;;2264429;61;1916;-87
2021/04/10 00:44:58;229029.00;0.76;395.88;0.00;0.00;0.62;;;;;16.10;1.00;;;;;;2264462;61;1083;-87
2021/04/10 00:47:25;277726.00;0.93;479.63;0.00;0.00;0.62;;;;;15.80;1.00;;;;;;2264421;61;1131;-86
2021/04/10 00:49:52;168584.00;0.56;291.83;0.00;0.00;0.62;;;;;15.60;1.00;;;;;;2264340;61;1089;-85
2021/04/10 00:52:19;214990.00;0.72;371.72;0.00;0.00;0.62;;;;;15.40;1.00;;;;;;2264253;61;1280;-86
2021/04/10 00:54:49;192372.00;0.64;332.79;0.00;0.00;0.62;;;;;15.10;1.00;;;;;;2264432;61;1133;-87
2021/04/10 00:57:16;367974.00;1.23;634.75;84548.00;0.28;146.89;;;;;14.90;1.00;;;;;;2264259;61;1248;-87
2021/04/10 00:59:42;291906.00;0.97;504.01;0.00;0.00;0.62;;;;;14.80;1.00;;;;;;2264234;61;1126;-87
2021/04/10 01:02:09;187903.00;0.63;325.10;0.00;0.00;0.62;;;;;14.70;1.00;;;;;;2264114;61;1998;-87
2021/04/10 01:04:36;250736.00;0.84;433.22;0.00;0.00;0.62;;;;;14.80;1.00;;;;;;2264352;61;1139;-87
2021/04/10 01:07:03;182540.00;0.61;315.86;0.00;0.00;0.62;;;;;14.80;1.00;;;;;;2264282;61;1300;-87
2021/04/10 01:09:30;250959.00;0.84;433.60;0.00;0.00;0.62;;;;;14.70;1.00;;;;;;2264264;61;1144;-87
2021/04/10 01:12:16;271051.00;0.90;468.15;0.00;0.00;0.62;;;;;14.60;1.00;;;;;;2264250;61;1416;-87
2021/04/10 01:14:54;480533.00;1.60;828.31;86755.00;0.29;150.70;;;;;14.80;1.00;;;;;;2264254;61;1701;-87
2021/04/10 01:17:27;391759.00;1.31;675.64;82656.00;0.28;143.62;;;;;14.80;1.00;;;;;;2264229;61;1118;-87
2021/04/10 01:20:11;532272.00;1.77;917.41;104276.00;0.35;180.95;;;;;15.10;1.00;;;;;;2263330;61;1160;-86
2021/04/10 01:23:16;484822.00;1.62;835.70;84425.00;0.28;146.68;;;;;15.20;1.00;;;;;;2256731;61;2006;-87
2021/04/10 01:26:05;482981.00;1.61;832.53;83162.00;0.28;144.50;;;;;15.50;1.00;;;;;;2262176;61;1088;-88
2021/04/10 01:28:51;311091.00;1.04;536.98;38866.00;0.13;67.93;;;;;15.30;1.00;;;;;;2261814;61;1165;-88
2021/04/10 01:31:21;223837.00;0.75;386.95;0.00;0.00;0.62;;;;;15.20;1.00;;;;;;2261913;61;1137;-88
2021/04/10 01:33:51;186884.00;0.62;323.34;0.00;0.00;0.62;;;;;15.10;1.00;;;;;;2262636;61;1372;-88
2021/04/10 01:36:25;126749.00;0.42;219.72;0.00;0.00;0.62;;;;;15.10;1.00;;;;;;2263013;61;1111;-88
2021/04/10 01:38:53;370601.00;1.24;639.27;0.00;0.00;0.62;;;;;15.10;1.00;;;;;;2263347;61;1642;-89
2021/04/10 01:41:23;433798.00;1.45;747.92;0.00;0.00;0.62;;;;;14.90;1.00;;;;;;2263845;61;2001;-88
2021/04/10 01:43:52;374678.00;1.25;646.28;59248.00;0.20;103.18;;;;;15.10;1.00;;;;;;2263501;61;1555;-88
2021/04/10 01:46:20;457081.00;1.52;787.96;49733.00;0.17;86.72;;;;;14.90;1.00;;;;;;2263835;61;1201;-88
2021/04/10 01:48:48;317677.00;1.06;548.31;28686.00;0.10;50.31;;;;;15.00;1.00;;;;;;2263916;61;1173;-88
2021/04/10 01:51:18;197006.00;0.66;340.77;0.00;0.00;0.62;;;;;15.10;1.00;;;;;;2263465;61;1078;-88
2021/04/10 01:53:46;251349.00;0.84;434.27;0.00;0.00;0.62;;;;;14.90;1.00;;;;;;2263512;61;1405;-88
2021/04/10 01:56:17;149292.00;0.50;258.59;0.00;0.00;0.62;;;;;14.80;1.00;;;;;;2263416;61;1764;-88
2021/04/10 01:58:44;252857.00;0.84;436.86;0.00;0.00;0.62;;;;;14.90;1.00;;;;;;2263963;61;1111;-87
2021/04/10 02:01:14;184193.00;0.61;318.71;0.00;0.00;0.62;;;;;15.00;1.00;;;;;;2263656;61;1943;-88
2021/04/10 02:03:44;217807.00;0.73;376.57;0.00;0.00;0.62;;;;;14.90;1.00;;;;;;2263772;61;1432;-88
2021/04/10 02:06:12;277160.00;0.92;478.65;0.00;0.00;0.62;;;;;14.80;1.00;;;;;;2264164;61;1146;-86
2021/04/10 02:08:42;118525800.00;395.09;67449448.00;0.00;0.00;0.62;;;;;14.90;1.00;;;;;;2263948;61;1118;-87
2021/04/10 02:11:11;149958.00;0.50;259.74;0.00;0.00;0.62;;;;;15.00;1.00;;;;;;2263725;61;1173;-88
2021/04/10 02:13:38;185321.00;0.62;320.65;0.00;0.00;0.62;;;;;15.10;1.00;;;;;;2263649;61;1527;-88
2021/04/10 02:16:06;159518.00;0.53;276.21;0.00;0.00;0.62;;;;;15.20;1.00;;;;;;2263244;61;1101;-88
2021/04/10 02:18:34;254461.00;0.85;439.62;9747.00;0.03;17.51;;;;;15.00;1.00;;;;;;2262841;61;1107;-87
2021/04/10 02:21:07;184280.00;0.61;318.86;0.00;0.00;0.62;;;;;14.80;1.00;;;;;;2262891;61;1927;-88
2021/04/10 02:23:34;293326.00;0.98;506.45;87806.00;0.29;152.52;;;;;14.70;1.00;;;;;;2263708;61;1563;-87
2021/04/10 02:26:01;374829.00;1.25;646.54;77306.00;0.26;134.38;;;;;14.80;1.00;;;;;;2263348;61;1069;-88
2021/04/10 02:28:28;329793.00;1.10;569.13;81615.00;0.27;141.83;;;;;14.50;1.00;;;;;;2263402;61;985;-86
2021/04/10 02:30:58;295186.00;0.98;509.64;83040.00;0.28;144.29;;;;;14.60;1.00;;;;;;2263249;61;1125;-88
2021/04/10 02:33:37;435054.00;1.45;750.08;87356.00;0.29;151.74;;;;;14.80;1.00;;;;;;2263344;61;1423;-88
2021/04/10 02:36:12;537228.00;1.79;925.95;86919.00;0.29;150.99;;;;;14.90;1.00;;;;;;2263474;61;1813;-88
2021/04/10 02:38:43;622142.00;2.07;1072.47;125760.00;0.42;218.02;;;;;15.00;1.00;;;;;;2263545;61;1157;-88
2021/04/10 02:41:20;539980.00;1.80;930.69;87761.00;0.29;152.44;;;;;15.00;1.00;;;;;;2262764;61;1980;-88
2021/04/10 02:43:54;709523.00;2.37;1223.76;186979.00;0.62;323.51;;;;;15.10;1.00;;;;;;2263431;61;1447;-88
2021/04/10 02:46:23;546570.00;1.82;942.05;15861.00;0.05;28.10;;;;;15.20;1.00;;;;;;2263488;61;1137;-86
2021/04/10 02:48:58;441267.00;1.47;760.76;0.00;0.00;0.62;;;;;15.30;1.00;;;;;;2264097;61;1057;-88
2021/04/10 02:51:35;367522.00;1.23;633.98;0.00;0.00;0.62;;;;;15.20;1.00;;;;;;2263779;61;1097;-87
2021/04/10 02:54:04;298288.00;0.99;514.98;0.00;0.00;0.62;;;;;15.10;1.00;;;;;;2263635;61;1491;-88
2021/04/10 02:56:35;358008.00;1.19;617.63;0.00;0.00;0.62;;;;;15.20;1.00;;;;;;2263948;61;1164;-88
2021/04/10 02:59:04;240650.00;0.80;415.87;0.00;0.00;0.62;;;;;15.20;1.00;;;;;;2263673;61;1134;-88
2021/04/10 03:01:32;432158.00;1.44;745.10;0.00;0.00;0.62;;;;;15.20;1.00;;;;;;2263468;61;1920;-87
2021/04/10 03:04:01;429808.00;1.43;741.06;0.00;0.00;0.62;;;;;15.20;1.00;;;;;;2263472;61;1394;-87
2021/04/10 03:06:30;402152.00;1.34;693.50;0.00;0.00;0.62;;;;;15.00;1.00;;;;;;2263616;61;1159;-88
2021/04/10 03:08:57;311022.00;1.04;536.87;0.00;0.00;0.62;;;;;14.80;1.00;;;;;;2264242;61;1123;-88
2021/04/10 03:11:24;194597.00;0.65;336.62;0.00;0.00;0.62;;;;;14.80;1.00;;;;;;2263723;61;1200;-88
2021/04/10 03:13:51;372362.00;1.24;642.30;0.00;0.00;0.62;;;;;14.80;1.00;;;;;;2263021;61;1432;-87
2021/04/10 03:16:18;282610.00;0.94;488.02;0.00;0.00;0.62;;;;;14.80;1.00;;;;;;2262489;61;1119;-86
2021/04/10 03:18:50;285778.00;0.95;493.47;0.00;0.00;0.62;;;;;14.50;1.00;;;;;;2256920;61;1272;-87
2021/04/10 03:21:18;733666.00;2.45;1265.67;35960.00;0.12;62.90;;;;;14.60;1.00;;;;;;2263297;61;2065;-87
2021/04/10 03:24:02;601861.00;2.01;1037.43;0.00;0.00;0.62;;;;;14.30;1.00;;;;;;2264202;61;1596;-87
2021/04/10 03:26:40;404115.00;1.35;696.88;0.00;0.00;0.62;;;;;14.30;1.00;;;;;;2264323;61;1023;-87
2021/04/10 03:29:10;469391.00;1.56;809.14;0.00;0.00;0.62;;;;;14.00;1.00;;;;;;2264444;61;1689;-87
2021/04/10 03:31:37;280877.00;0.94;485.05;0.00;0.00;0.62;;;;;14.20;1.00;;;;;;2264586;61;920;-86
2021/04/10 03:34:05;470197.00;1.57;810.53;0.00;0.00;0.62;;;;;14.30;1.00;;;;;;2264456;61;1701;-86
2021/04/10 03:36:34;436943.00;1.46;753.33;25820.00;0.09;45.35;;;;;14.30;1.00;;;;;;2264545;61;1682;-87
2021/04/10 03:39:03;264636.00;0.88;457.12;33354.00;0.11;58.39;;;;;14.30;1.00;;;;;;2264603;61;1061;-87
2021/04/10 03:41:31;218238.00;0.73;377.31;0.00;0.00;0.62;;;;;14.20;1.00;;;;;;2264524;61;2010;-87
2021/04/10 03:43:58;168913.00;0.56;292.39;0.00;0.00;0.62;;;;;14.40;1.00;;;;;;2257466;61;1368;-87
2021/04/10 03:46:41;375959.00;1.25;648.48;0.00;0.00;0.62;;;;;14.60;1.00;;;;;;2264559;61;1149;-87
2021/04/10 03:49:28;294464.00;0.98;508.40;0.00;0.00;0.62;;;;;14.50;1.00;;;;;;2264447;61;1714;-87
2021/04/10 03:52:20;200448.00;0.67;346.69;0.00;0.00;0.62;;;;;14.50;1.00;;;;;;2264431;61;1143;-88
2021/04/10 03:54:49;335343.00;1.12;578.67;0.00;0.00;0.62;;;;;14.30;1.00;;;;;;2263870;61;1713;-88
2021/04/10 03:57:21;347027.00;1.16;598.75;41267.00;0.14;72.08;;;;;14.70;1.00;;;;;;2264371;61;1158;-87
2021/04/10 03:59:49;385272.00;1.28;664.49;67553.00;0.23;117.53;;;;;15.00;1.00;;;;;;2264521;61;1070;-87
2021/04/10 04:02:17;369001.00;1.23;636.52;55025.00;0.18;95.88;;;;;15.20;1.00;;;;;;2264523;61;1990;-87
2021/04/10 04:04:54;605533.00;2.02;1043.77;69684.00;0.23;121.21;;;;;15.10;1.00;;;;;;2264561;61;1037;-87
2021/04/10 04:07:23;570970.00;1.90;984.12;85744.00;0.29;148.96;;;;;14.90;1.00;;;;;;2263940;61;1717;-88
2021/04/10 04:09:51;605509.00;2.02;1043.73;79248.00;0.26;137.74;;;;;14.90;1.00;;;;;;2255959;61;1594;-87
2021/04/10 04:12:18;489920.00;1.63;844.47;90322.00;0.30;156.86;;;;;15.20;1.00;;;;;;2255832;61;1388;-87
2021/04/10 04:14:53;576381.00;1.92;993.45;86844.00;0.29;150.86;;;;;15.30;1.00;;;;;;2255993;61;1508;-88
2021/04/10 04:17:22;544010.00;1.81;937.63;85462.00;0.28;148.47;;;;;15.40;1.00;;;;;;2256148;61;1006;-88
2021/04/10 04:19:53;708417.00;2.36;1221.84;89585.00;0.30;155.59;;;;;15.50;1.00;;;;;;2256038;61;1063;-87
2021/04/10 04:22:35;922939.00;3.08;1596.44;84151.00;0.28;146.21;;;;;15.50;1.00;;;;;;2255984;61;1936;-87
2021/04/10 04:25:07;492744.00;1.64;849.33;0.00;0.00;0.62;;;;;15.30;1.00;;;;;;2256011;61;1733;-88
2021/04/10 04:30:35;150484.00;0.50;260.64;0.00;0.00;0.62;;;;;15.10;1.00;;;;;;2264487;61;687;-88
2021/04/10 04:33:09;412376.00;1.37;711.08;17312.00;0.06;30.62;;;;;15.30;1.00;;;;;;2264448;61;1325;-88
2021/04/10 04:35:36;417217.00;1.39;719.41;0.00;0.00;0.62;;;;;15.40;1.00;;;;;;2264420;61;1061;-88
2021/04/10 04:38:05;265206.00;0.88;458.10;0.00;0.00;0.62;;;;;15.70;1.00;;;;;;2264518;61;1105;-87
2021/04/10 04:40:32;300974.00;1.00;519.59;16461.00;0.05;29.14;;;;;16.00;1.00;;;;;;2264460;61;1123;-88
2021/04/10 04:43:01;352246.00;1.17;607.72;0.00;0.00;0.62;;;;;16.10;1.00;;;;;;2264226;61;1922;-87
2021/04/10 04:45:28;394128.00;1.31;679.71;0.00;0.00;0.62;;;;;16.10;1.00;;;;;;2264286;61;1831;-87
2021/04/10 04:47:57;209374.00;0.70;362.06;0.00;0.00;0.62;;;;;16.10;1.00;;;;;;2264406;61;1678;-87
2021/04/10 04:50:27;206351.00;0.69;356.86;0.00;0.00;0.62;;;;;15.90;1.00;;;;;;2264438;61;1059;-88
2021/04/10 04:52:53;217773.00;0.73;376.51;7708.00;0.03;13.98;;;;;15.50;1.00;;;;;;2264423;61;1321;-87
2021/04/10 04:55:30;298830.00;1.00;515.91;38312.00;0.13;66.97;;;;;15.50;1.00;;;;;;2264446;61;822;-87
2021/04/10 04:57:58;305563.00;1.02;527.48;52699.00;0.18;91.85;;;;;15.50;1.00;;;;;;2264377;61;1571;-87
2021/04/10 05:00:31;378139.00;1.26;652.23;0.00;0.00;0.62;;;;;15.20;1.00;;;;;;2264303;61;1688;-88
2021/04/10 05:03:11;400444.00;1.33;690.57;0.00;0.00;0.62;;;;;15.20;1.00;;;;;;2264306;61;1938;-88
2021/04/10 05:06:15;324020.00;1.08;559.21;0.00;0.00;0.62;;;;;15.10;1.00;;;;;;2264373;61;1786;-88
2021/04/10 05:08:42;836431.00;2.79;1444.74;82874.00;0.28;144.00;;;;;14.80;1.00;;;;;;2264055;61;1250;-87
2021/04/10 05:11:09;811058.00;2.70;1400.42;97118.00;0.32;168.60;;;;;14.90;1.00;;;;;;2264435;61;1103;-87
2021/04/10 05:13:36;723676.00;2.41;1248.32;81826.00;0.27;142.19;;;;;15.00;1.00;;;;;;2264351;61;1392;-87
2021/04/10 05:16:08;663667.00;2.21;1144.29;111570.00;0.37;193.54;;;;;14.80;1.00;;;;;;2264363;61;1100;-87
2021/04/10 05:18:35;561357.00;1.87;967.54;0.00;0.00;0.62;;;;;14.60;1.00;;;;;;2257268;61;1552;-86
2021/04/10 05:21:02;652107.00;2.17;1124.28;27835.00;0.09;48.84;;;;;14.50;1.00;;;;;;2264194;61;1859;-87
2021/04/10 05:23:28;425960.00;1.42;734.44;0.00;0.00;0.62;;;;;14.50;1.00;;;;;;2264198;61;1936;-87
2021/04/10 05:25:55;328692.00;1.10;567.24;0.00;0.00;0.62;;;;;14.70;1.00;;;;;;2264342;61;1083;-88
2021/04/10 05:28:22;313045.00;1.04;540.34;0.00;0.00;0.62;;;;;14.80;1.00;;;;;;2264243;61;1146;-87
2021/04/10 05:30:49;222238.00;0.74;384.19;0.00;0.00;0.62;;;;;15.00;1.00;;;;;;2264333;61;1084;-87
2021/04/10 05:33:15;375787.00;1.25;648.18;0.00;0.00;0.62;;;;;15.40;1.00;;;;;;2264287;61;1367;-87
2021/04/10 05:35:43;440572.00;1.47;759.57;0.00;0.00;0.62;;;;;15.30;1.00;;;;;;2264228;61;1104;-87
2021/04/10 05:38:09;246289.00;0.82;425.57;0.00;0.00;0.62;;;;;14.90;1.00;;;;;;2264245;61;922;-87
2021/04/10 05:40:38;416034.00;1.39;717.37;0.00;0.00;0.62;;;;;14.50;1.00;;;;;;2264215;61;1110;-86
2021/04/10 05:43:04;319163.00;1.06;550.86;0.00;0.00;0.62;;;;;14.30;1.00;;;;;;2264153;61;2003;-89
2021/04/10 05:45:32;363733.00;1.21;627.46;0.00;0.00;0.62;;;;;14.30;1.00;;;;;;2264237;61;965;-87
2021/04/10 05:47:58;578059.00;1.93;996.35;35282.00;0.12;61.72;;;;;14.40;1.00;;;;;;2264174;61;1732;-87
2021/04/10 05:50:25;468806.00;1.56;808.14;0.00;0.00;0.62;;;;;14.60;1.00;;;;;;2264248;61;1000;-87
2021/04/10 05:52:51;527115.00;1.76;908.52;0.00;0.00;0.62;;;;;14.50;1.00;;;;;;2264117;61;1384;-86
2021/04/10 05:55:17;343140.00;1.14;592.07;0.00;0.00;0.62;;;;;14.50;1.00;;;;;;2264169;61;1107;-86
2021/04/10 05:57:44;326079.00;1.09;562.75;0.00;0.00;0.62;;;;;14.50;1.00;;;;;;2264228;61;1019;-85
2021/04/10 06:00:11;504348.00;1.68;869.31;0.00;0.00;0.62;;;;;14.30;1.00;;;;;;2264185;61;1107;-87
2021/04/10 06:02:38;451338.00;1.50;778.08;0.00;0.00;0.62;;;;;14.40;1.00;;;;;;2263923;61;2002;-86
2021/04/10 06:05:05;487674.00;1.63;840.61;0.00;0.00;0.62;;;;;14.10;1.00;;;;;;2264181;61;1110;-86
2021/04/10 06:07:32;523397.00;1.74;902.12;0.00;0.00;0.62;;;;;14.10;1.00;;;;;;2264105;61;1304;-88
2021/04/10 06:09:58;481033.00;1.60;829.18;53142.00;0.18;92.62;;;;;14.00;1.00;;;;;;2264147;61;1069;-87
2021/04/10 06:12:24;412152.00;1.37;710.70;0.00;0.00;0.62;;;;;13.80;1.00;;;;;;2264149;61;1409;-88
2021/04/10 06:14:51;411926.00;1.37;710.31;0.00;0.00;0.62;;;;;13.60;1.00;;;;;;2264221;61;923;-87
2021/04/10 06:17:18;295766.00;0.99;510.64;0.00;0.00;0.62;;;;;13.80;1.00;;;;;;2264064;61;1006;-88
2021/04/10 06:19:45;477649.00;1.59;823.35;81138.00;0.27;141.00;;;;;14.00;1.00;;;;;;2264125;61;1227;-88
2021/04/10 06:22:11;461568.00;1.54;795.68;86261.00;0.29;149.85;;;;;13.90;1.00;;;;;;2264012;61;2006;-88
2021/04/10 06:24:38;581143.00;1.94;1001.67;83460.00;0.28;145.01;;;;;13.60;1.00;;;;;;2264112;61;1081;-87
2021/04/10 06:27:05;530683.00;1.77;914.67;83538.00;0.28;145.15;;;;;13.70;1.00;;;;;;2264223;61;919;-87
2021/04/10 06:29:32;509520.00;1.70;878.22;79462.00;0.26;138.11;;;;;13.90;1.00;;;;;;2264151;61;1048;-87
2021/04/10 06:31:58;608697.00;2.03;1049.24;94774.00;0.32;164.55;;;;;14.00;1.00;;;;;;2264033;61;1305;-88
2021/04/10 06:34:24;648133.00;2.16;1117.41;86118.00;0.29;149.60;;;;;14.30;1.00;;;;;;2264168;61;1143;-87
2021/04/10 06:36:52;593912.00;1.98;1023.71;82028.00;0.27;142.54;;;;;14.60;1.00;;;;;;2264117;61;986;-87
2021/04/10 06:39:18;810562.00;2.70;1399.55;104522.00;0.35;181.38;;;;;14.40;1.00;;;;;;2264116;61;1130;-87
2021/04/10 06:41:45;472683.00;1.58;814.81;79002.00;0.26;137.31;;;;;14.50;1.00;;;;;;2256975;61;2004;-88
2021/04/10 06:44:11;466575.00;1.56;804.30;84946.00;0.28;147.58;;;;;14.40;1.00;;;;;;2264125;61;1319;-87
2021/04/10 06:46:39;509956.00;1.70;878.97;84279.00;0.28;146.43;;;;;14.90;1.00;;;;;;2264203;61;958;-87
2021/04/10 06:49:09;480260.00;1.60;827.85;84222.00;0.28;146.33;;;;;15.30;1.00;;;;;;2264156;61;923;-87
2021/04/10 06:51:38;515290.00;1.72;888.15;11865.00;0.04;21.18;;;;;15.40;1.00;;;;;;2264115;61;1142;-87
2021/04/10 06:54:07;212782.00;0.71;367.92;0.00;0.00;0.62;;;;;15.70;1.00;;;;;;2264057;61;1412;-87
2021/04/10 06:56:37;279698.00;0.93;483.02;0.00;0.00;0.62;;;;;15.90;1.00;;;;;;2264110;61;1125;-88
2021/04/10 06:59:09;338691.00;1.13;584.42;0.00;0.00;0.62;;;;;15.80;1.00;;;;;;2260304;61;992;-88
2021/04/10 07:01:36;251162.00;0.84;433.95;0.00;0.00;0.62;;;;;15.80;1.00;;;;;;2264046;61;1993;-87
2021/04/10 07:04:03;535675.00;1.79;923.27;76429.00;0.25;132.87;;;;;15.50;1.00;;;;;;2264055;61;1374;-89
2021/04/10 07:06:30;606409.00;2.02;1045.29;82948.00;0.28;144.13;;;;;15.20;1.00;;;;;;2263527;61;983;-89
2021/04/10 07:08:58;434388.00;1.45;748.93;85242.00;0.28;148.09;;;;;14.60;1.00;;;;;;2257096;61;979;-87
2021/04/10 07:11:25;508551.00;1.70;876.55;89618.00;0.30;155.65;;;;;14.50;1.00;;;;;;2264033;61;1134;-87
2021/04/10 07:13:52;474812.00;1.58;818.47;80661.00;0.27;140.18;;;;;14.40;1.00;;;;;;2264074;61;1400;-87
2021/04/10 07:16:18;449383.00;1.50;774.72;81962.00;0.27;142.43;;;;;14.40;1.00;;;;;;2264095;61;997;-87
2021/04/10 07:18:45;480750.00;1.60;828.69;90265.00;0.30;156.77;;;;;14.60;1.00;;;;;;2263908;61;1154;-88
2021/04/10 07:21:14;649717.00;2.17;1120.15;81687.00;0.27;141.95;;;;;14.30;1.00;;;;;;2263866;61;1168;-88
2021/04/10 07:23:45;705734.00;2.35;1217.18;93283.00;0.31;161.98;;;;;14.40;1.00;;;;;;2263798;61;2018;-88
2021/04/10 07:26:14;648992.00;2.16;1118.89;119806.00;0.40;207.75;;;;;14.60;1.00;;;;;;2263917;61;946;-88
2021/04/10 07:28:51;575639.00;1.92;992.17;82657.00;0.28;143.63;;;;;14.60;1.00;;;;;;2263681;61;1621;-88
2021/04/10 07:31:18;653368.00;2.18;1126.46;70323.00;0.23;122.32;;;;;14.70;1.00;;;;;;2263875;61;1642;-87
2021/04/10 07:33:57;424326.00;1.41;731.63;73074.00;0.24;127.07;;;;;14.70;1.00;;;;;;2264524;61;1308;-87
2021/04/10 07:36:24;559837.00;1.87;964.92;88999.00;0.30;154.58;;;;;14.60;1.00;;;;;;2264432;61;1077;-86
2021/04/10 07:38:57;376520.00;1.26;649.44;81891.00;0.27;142.30;;;;;14.80;1.00;;;;;;2264458;61;1075;-87
2021/04/10 07:41:24;501522.00;1.67;864.44;82275.00;0.27;142.97;;;;;14.70;1.00;;;;;;2264531;61;1986;-87
2021/04/10 07:43:52;458537.00;1.53;790.47;79960.00;0.27;138.97;;;;;14.90;1.00;;;;;;2264454;61;1310;-87
2021/04/10 07:46:20;423845.00;1.41;730.80;78890.00;0.26;137.12;;;;;14.70;1.00;;;;;;2264482;61;1128;-86
2021/04/10 07:49:06;364593.00;1.22;628.94;80525.00;0.27;139.94;;;;;14.80;1.00;;;;;;2264663;61;1063;-87
2021/04/10 07:51:34;481558.00;1.61;830.08;78377.00;0.26;136.23;;;;;15.00;1.00;;;;;;2264616;61;1097;-87
2021/04/10 07:54:19;664923.00;2.22;1146.46;84659.00;0.28;147.08;;;;;14.80;1.00;;;;;;2264596;61;1284;-87
2021/04/10 07:56:53;181495.00;0.60;314.06;0.00;0.00;0.62;;;;;14.80;1.00;;;;;;2264499;61;1095;-87
2021/04/10 07:59:20;328907.00;1.10;567.61;0.00;0.00;0.62;;;;;14.80;1.00;;;;;;2264543;61;1067;-87
2021/04/10 08:01:46;346829.00;1.16;598.41;0.00;0.00;0.62;;;;;15.00;1.00;;;;;;2264570;61;2010;-88
2021/04/10 08:04:14;485467.00;1.62;836.81;0.00;0.00;0.62;;;;;15.00;1.00;;;;;;2264554;61;1435;-88
2021/04/10 08:06:56;542736.00;1.81;935.44;34020.00;0.11;59.54;;;;;14.90;1.00;;;;;;2264428;61;1147;-87
2021/04/10 08:09:33;312627.00;1.04;539.63;0.00;0.00;0.62;;;;;14.80;1.00;;;;;;2264594;61;1196;-88
2021/04/10 08:12:01;137557.00;0.46;238.36;0.00;0.00;0.62;;;;;15.10;1.00;;;;;;2264517;61;1297;-87
2021/04/10 08:14:41;248080.00;0.83;428.65;0.00;0.00;0.62;;;;;15.20;1.00;;;;;;2264513;61;1008;-87
2021/04/10 08:17:08;213092.00;0.71;368.46;0.00;0.00;0.62;;;;;15.60;1.00;;;;;;2264526;61;1091;-87
2021/04/10 08:19:36;301174.00;1.00;519.94;0.00;0.00;0.62;;;;;15.90;1.00;;;;;;2264487;61;1095;-87
2021/04/10 08:22:04;478850.00;1.60;825.42;25423.00;0.08;44.66;;;;;15.90;1.00;;;;;;2264471;61;1920;-87
2021/04/10 08:24:36;136455.00;0.45;236.46;0.00;0.00;0.62;;;;;16.00;1.00;;;;;;2264550;61;1102;-87
2021/04/10 08:27:05;204038.00;0.68;352.87;21824.00;0.07;38.43;;;;;15.90;1.00;;;;;;2264497;61;1149;-87
2021/04/10 08:29:32;211877.00;0.71;366.37;0.00;0.00;0.62;;;;;16.00;1.00;;;;;;2264532;61;1088;-88
2021/04/10 08:32:01;84180.00;0.28;146.26;0.00;0.00;0.62;;;;;16.00;1.00;;;;;;2264520;61;1395;-87
2021/04/10 08:34:30;164295.00;0.55;284.44;0.00;0.00;0.62;;;;;16.00;1.00;;;;;;2264258;61;1134;-85
2021/04/10 08:36:58;144134.00;0.48;249.70;0.00;0.00;0.62;;;;;15.90;1.00;;;;;;2253706;61;1172;-86
2021/04/10 08:39:29;392801.00;1.31;677.43;24286.00;0.08;42.69;;;;;16.10;1.00;;;;;;2261731;61;1161;-86
2021/04/10 08:41:58;233678.00;0.78;403.88;0.00;0.00;0.62;;;;;16.20;1.00;;;;;;2262185;61;1919;-86
2021/04/10 08:44:30;248183.00;0.83;428.83;0.00;0.00;0.62;;;;;16.30;1.00;;;;;;2257243;61;978;-85
2021/04/10 08:46:57;345125.00;1.15;595.48;12051.00;0.04;21.50;;;;;16.20;1.00;;;;;;2253511;61;1049;-86
2021/04/10 08:49:29;326188.00;1.09;562.93;25130.00;0.08;44.15;;;;;16.30;1.00;;;;;;2257314;61;1198;-86
2021/04/10 08:52:05;379864.00;1.27;655.19;0.00;0.00;0.62;;;;;16.40;1.00;;;;;;2245208;62;1209;-85
2021/04/10 08:54:36;118645.00;0.40;205.75;0.00;0.00;0.62;;;;;16.60;1.00;;;;;;2241460;62;1090;-86
2021/04/10 08:57:08;353922.00;1.18;610.60;0.00;0.00;0.62;;;;;16.70;1.00;;;;;;2238876;62;1176;-85
2021/04/10 08:59:42;116751.00;0.39;202.48;0.00;0.00;0.62;;;;;17.00;1.00;;;;;;2238150;62;1174;-86
2021/04/10 09:02:14;124634.00;0.42;216.08;0.00;0.00;0.62;;;;;17.10;1.00;;;;;;2241750;62;2027;-85
2021/04/10 09:05:00;119034.00;0.40;206.42;0.00;0.00;0.62;;;;;17.20;1.00;;;;;;2244863;62;1174;-86
2021/04/10 09:08:08;129107.00;0.43;223.79;0.00;0.00;0.62;;;;;17.70;1.00;;;;;;2240889;62;1232;-86
2021/04/10 09:10:48;140733.00;0.47;243.83;0.00;0.00;0.62;;;;;17.70;1.00;;;;;;2247085;61;1096;-86
2021/04/10 09:13:25;61356.00;0.20;106.82;0.00;0.00;0.62;;;;;18.00;1.00;;;;;;2260992;61;1377;-86
2021/04/10 09:16:26;220860.00;0.74;381.82;0.00;0.00;0.62;;;;;18.10;1.00;;;;;;2262078;61;1084;-86
2021/04/10 09:18:54;373101.00;1.24;643.57;43226.00;0.14;75.47;;;;;18.20;1.00;;;;;;2254767;61;1184;-86
2021/04/10 09:21:26;294799.00;0.98;508.98;0.00;0.00;0.62;;;;;18.30;1.00;;;;;;2256102;61;1124;-89
2021/04/10 09:23:54;215810.00;0.72;373.13;0.00;0.00;0.62;;;;;18.40;1.00;;;;;;2255663;61;1936;-88
2021/04/10 09:26:21;397906.00;1.33;686.21;0.00;0.00;0.62;;;;;18.30;1.00;;;;;;2255600;61;1072;-88
2021/04/10 09:29:15;612072.00;2.04;1055.07;94385.00;0.31;163.88;;;;;18.10;1.00;;;;;;2255737;61;1118;-88
2021/04/10 09:31:45;459759.00;1.53;792.57;0.00;0.00;0.62;;;;;18.40;1.00;;;;;;2243912;61;1114;-88
2021/04/10 09:34:48;241598.00;0.81;417.50;0.00;0.00;0.62;;;;;18.10;1.00;;;;;;2237331;61;1382;-88
2021/04/10 09:37:57;131443.00;0.44;227.82;0.00;0.00;0.62;;;;;18.20;1.00;;;;;;2243718;61;1069;-88
2021/04/10 09:40:43;190242.00;0.63;329.13;29227.00;0.10;51.25;;;;;18.00;1.00;;;;;;2237159;61;1031;-88
2021/04/10 09:43:10;158545.00;0.53;274.53;0.00;0.00;0.62;;;;;18.30;1.00;;;;;;2244233;61;2006;-87
2021/04/10 09:45:37;246105.00;0.82;425.25;0.00;0.00;0.62;;;;;18.40;1.00;;;;;;2247857;61;1128;-87
2021/04/10 09:48:21;276532.00;0.92;477.57;0.00;0.00;0.62;;;;;18.20;1.00;;;;;;2247780;61;1147;-87
2021/04/10 09:51:10;171643.00;0.57;297.10;31098.00;0.10;54.48;;;;;17.90;1.00;;;;;;2247784;61;1216;-87
2021/04/10 09:53:36;176252.00;0.59;305.03;0.00;0.00;0.62;;;;;17.90;1.00;;;;;;2247615;61;1453;-87
2021/04/10 09:56:23;262798.00;0.88;453.96;0.00;0.00;0.62;;;;;17.90;1.00;;;;;;2247436;61;1149;-88
2021/04/10 09:58:52;58729.00;0.20;102.28;0.00;0.00;0.62;;;;;17.90;1.00;;;;;;2247722;61;1172;-88
2021/04/10 10:01:22;104464.00;0.35;181.28;0.00;0.00;0.62;;;;;18.00;1.00;;;;;;2241166;61;1015;-88
2021/04/10 10:03:50;200008.00;0.67;345.94;0.00;0.00;0.62;;;;;18.30;1.00;;;;;;2247675;61;1921;-88